Time;durP1;ratioP1;P1;durP2;ratioP2;P2;SDS_P1;SDS_P2;PMS_P1;PMS_P2;Temp;Humidity;BMP_temperature;BMP_pressure;BME280_temperature;BME280_humidity;BME280_pressure;Samples;Min_cycle;Max_cycle;Signal;HPM_P1;HPM_P2
2022/01/31 00:02:12;;;;;;;1.25;0.90;;;8.10;34.10;;;;;;5075550;28;20184;-50
2022/01/31 00:04:38;;;;;;;4.50;1.50;;;8.10;33.80;;;;;;5075251;28;20189;-50
2022/01/31 00:07:04;;;;;;;2.03;0.87;;;8.00;34.00;;;;;;5073972;28;20232;-50
2022/01/31 00:09:30;;;;;;;9.82;1.23;;;7.90;34.20;;;;;;5075195;28;20168;-50
2022/01/31 00:12:00;;;;;;;1.60;0.63;;;7.90;34.10;;;;;;5075227;28;20199;-50
2022/01/31 00:17:01;;;;;;;2.08;0.82;;;8.00;34.10;;;;;;5075072;28;20543;-49
2022/01/31 00:19:28;;;;;;;3.95;0.98;;;7.90;34.10;;;;;;5074872;28;20212;-50
2022/01/31 00:21:54;;;;;;;2.38;0.75;;;7.90;34.30;;;;;;5074998;28;20176;-50
2022/01/31 00:24:19;;;;;;;1.10;0.60;;;7.90;34.20;;;;;;5074608;28;20216;-50
2022/01/31 00:26:45;;;;;;;2.07;0.87;;;7.90;34.40;;;;;;5074831;28;20176;-50
2022/01/31 00:29:11;;;;;;;3.83;1.00;;;8.00;34.20;;;;;;5074792;28;20198;-50
2022/01/31 00:31:36;;;;;;;1.20;0.60;;;8.00;34.40;;;;;;5074709;28;20165;-50
2022/01/31 00:34:02;;;;;;;1.33;0.40;;;8.00;34.00;;;;;;5074859;28;20193;-49
2022/01/31 00:36:28;;;;;;;1.50;0.40;;;8.00;34.40;;;;;;5073382;28;20180;-50
2022/01/31 00:38:53;;;;;;;4.13;0.90;;;7.80;34.10;;;;;;5074613;28;20575;-49
2022/01/31 00:41:19;;;;;;;2.30;0.80;;;7.80;34.30;;;;;;5074483;28;20507;-50
2022/01/31 00:43:55;;;;;;;1.93;0.73;;;7.90;34.10;;;;;;5074536;28;20167;-50
2022/01/31 00:46:27;;;;;;;2.95;0.60;;;7.90;34.10;;;;;;5074458;28;20163;-49
2022/01/31 00:48:52;;;;;;;3.53;1.10;;;7.90;34.40;;;;;;5074363;28;20165;-50
2022/01/31 00:51:18;;;;;;;1.10;0.50;;;7.80;34.30;;;;;;5074390;28;20171;-49
2022/01/31 00:53:44;;;;;;;1.20;0.90;;;7.80;34.80;;;;;;5074300;28;20234;-49
2022/01/31 00:56:09;;;;;;;3.77;2.00;;;7.80;34.70;;;;;;5074337;28;20560;-50
2022/01/31 00:58:35;;;;;;;1.13;0.70;;;7.90;34.70;;;;;;5074092;28;20999;-49
2022/01/31 01:01:01;;;;;;;2.03;1.43;;;7.90;34.70;;;;;;5074159;28;20171;-50
2022/01/31 01:03:27;;;;;;;1.00;0.47;;;7.90;34.70;;;;;;5074121;28;20438;-50
2022/01/31 01:05:53;;;;;;;1.00;0.40;;;7.90;34.90;;;;;;5074003;28;20248;-50
2022/01/31 01:08:19;;;;;;;3.73;1.03;;;7.80;34.80;;;;;;5074076;28;20470;-49
2022/01/31 01:10:45;;;;;;;1.40;0.60;;;7.70;35.00;;;;;;5074031;28;20456;-49
2022/01/31 01:13:11;;;;;;;3.17;0.68;;;7.80;35.00;;;;;;5073924;28;20452;-50
2022/01/31 01:15:36;;;;;;;5.30;1.00;;;7.80;34.80;;;;;;5073867;28;20165;-50
2022/01/31 01:18:02;;;;;;;1.83;0.87;;;7.80;34.80;;;;;;5073862;28;20447;-50
2022/01/31 01:20:29;;;;;;;1.00;0.30;;;7.70;34.80;;;;;;5073796;28;20423;-49
2022/01/31 01:22:55;;;;;;;4.28;0.65;;;7.70;34.90;;;;;;5073777;28;20462;-50
2022/01/31 01:25:21;;;;;;;3.67;1.13;;;7.70;35.20;;;;;;5073632;28;20309;-50
2022/01/31 01:27:50;;;;;;;3.20;0.50;;;7.60;35.30;;;;;;5073879;28;20237;-50
2022/01/31 01:30:16;;;;;;;13.40;1.52;;;7.70;35.20;;;;;;5073693;28;20177;-50
2022/01/31 01:32:50;;;;;;;1.40;0.63;;;7.70;35.10;;;;;;5073655;28;20243;-50
2022/01/31 01:35:16;;;;;;;1.40;0.40;;;7.80;35.00;;;;;;5074009;28;20174;-49
2022/01/31 01:37:42;;;;;;;2.25;1.02;;;7.80;35.00;;;;;;5073493;28;20196;-50
2022/01/31 01:40:08;;;;;;;9.90;1.23;;;7.90;34.90;;;;;;5073660;28;20196;-50
2022/01/31 01:45:17;;;;;;;1.17;0.52;;;7.90;35.00;;;;;;5073320;28;20180;-50
2022/01/31 01:47:43;;;;;;;1.20;0.80;;;7.70;35.00;;;;;;5073642;28;20251;-50
2022/01/31 01:50:09;;;;;;;1.40;0.80;;;7.60;35.20;;;;;;5072224;28;20206;-50
2022/01/31 01:52:35;;;;;;;1.00;0.30;;;7.50;35.60;;;;;;5073472;28;20403;-50
2022/01/31 01:55:01;;;;;;;1.60;0.77;;;7.60;35.40;;;;;;5073438;28;20407;-50
2022/01/31 01:57:28;;;;;;;6.45;1.55;;;7.60;35.30;;;;;;5073579;28;20280;-50
2022/01/31 01:59:56;;;;;;;3.85;1.27;;;7.60;35.30;;;;;;5073435;28;20223;-50
2022/01/31 02:02:22;;;;;;;2.03;0.80;;;7.60;35.20;;;;;;5073460;28;20188;-49
2022/01/31 02:04:48;;;;;;;2.20;0.80;;;7.60;35.30;;;;;;5073333;28;20161;-49
2022/01/31 02:07:14;;;;;;;5.80;0.88;;;7.60;35.20;;;;;;5073460;28;20533;-49
2022/01/31 02:09:45;;;;;;;4.30;1.17;;;7.60;35.10;;;;;;5073264;28;20167;-50
2022/01/31 02:12:12;;;;;;;1.63;0.88;;;7.60;35.00;;;;;;5073276;28;20176;-50
2022/01/31 02:14:38;;;;;;;4.70;0.90;;;7.70;35.10;;;;;;5073268;28;20172;-50
2022/01/31 02:17:04;;;;;;;2.28;1.00;;;7.70;35.00;;;;;;5073886;28;20222;-50
2022/01/31 02:19:30;;;;;;;2.92;0.80;;;7.60;35.10;;;;;;5077208;28;20204;-50
2022/01/31 02:21:56;;;;;;;1.00;0.30;;;7.60;35.00;;;;;;5077195;28;20255;-50
2022/01/31 02:24:22;;;;;;;8.43;1.30;;;7.60;35.00;;;;;;5076896;28;20298;-50
2022/01/31 02:26:48;;;;;;;3.15;1.65;;;7.60;35.30;;;;;;5077225;28;20456;-50
2022/01/31 02:29:14;;;;;;;1.00;0.40;;;7.50;35.30;;;;;;5077017;28;20656;-50
2022/01/31 02:31:49;;;;;;;2.08;0.85;;;7.50;35.20;;;;;;5077296;28;20567;-50
2022/01/31 02:34:16;;;;;;;1.20;0.70;;;7.50;35.30;;;;;;5077015;28;20197;-50
2022/01/31 02:36:42;;;;;;;1.30;0.60;;;7.60;35.10;;;;;;5076918;28;20177;-50
2022/01/31 02:39:09;;;;;;;1.08;0.47;;;7.60;35.00;;;;;;5076818;28;20224;-50
2022/01/31 02:41:42;;;;;;;2.40;1.00;;;7.60;34.60;;;;;;5076811;28;20192;-49
2022/01/31 02:44:14;;;;;;;1.85;0.65;;;7.60;34.90;;;;;;5075794;28;20188;-50
2022/01/31 02:46:47;;;;;;;5.82;0.73;;;7.60;34.90;;;;;;5077049;28;20554;-50
2022/01/31 02:49:15;;;;;;;2.35;1.00;;;7.60;34.90;;;;;;5076662;28;20604;-54
2022/01/31 02:51:46;;;;;;;1.38;0.70;;;7.60;34.80;;;;;;5076605;28;20643;-50
2022/01/31 02:54:12;;;;;;;1.00;0.40;;;7.70;35.00;;;;;;5076899;28;20244;-50
2022/01/31 02:56:40;;;;;;;1.57;0.87;;;7.70;34.90;;;;;;5076580;28;20203;-50
2022/01/31 02:59:06;;;;;;;2.20;0.80;;;7.60;34.80;;;;;;5076465;28;20188;-49
2022/01/31 03:01:36;;;;;;;6.15;0.70;;;7.60;34.80;;;;;;5076587;28;20590;-50
2022/01/31 03:04:02;;;;;;;1.73;0.70;;;7.60;34.90;;;;;;5076431;28;20172;-50
2022/01/31 03:06:27;;;;;;;2.50;0.93;;;7.60;35.00;;;;;;5076349;28;20173;-50
2022/01/31 03:08:53;;;;;;;5.63;1.27;;;7.60;35.00;;;;;;5076314;28;20435;-50
2022/01/31 03:11:18;;;;;;;10.23;1.50;;;7.70;35.00;;;;;;5076413;28;20222;-49
2022/01/31 03:13:44;;;;;;;2.07;0.83;;;7.70;34.80;;;;;;5076285;28;20174;-50
2022/01/31 03:16:10;;;;;;;2.20;1.47;;;7.70;34.90;;;;;;5076252;28;20168;-50
2022/01/31 03:18:35;;;;;;;1.43;0.50;;;7.60;34.70;;;;;;5074840;28;20195;-49
2022/01/31 03:21:01;;;;;;;3.57;0.60;;;7.60;35.00;;;;;;5076377;28;20183;-49
2022/01/31 03:23:27;;;;;;;2.23;1.60;;;7.60;35.00;;;;;;5075823;28;20666;-50
2022/01/31 03:25:53;;;;;;;6.50;1.33;;;7.60;35.00;;;;;;5076013;28;20384;-50
2022/01/31 03:28:18;;;;;;;2.20;0.53;;;7.60;35.00;;;;;;5076013;28;20157;-49
2022/01/31 03:30:44;;;;;;;9.23;1.87;;;7.60;35.00;;;;;;5075921;28;20168;-50
2022/01/31 03:33:10;;;;;;;1.50;0.80;;;7.60;35.00;;;;;;5076000;28;20176;-49
2022/01/31 03:35:35;;;;;;;2.03;0.83;;;7.50;35.00;;;;;;5075844;28;20407;-50
2022/01/31 03:38:01;;;;;;;3.83;1.17;;;7.50;35.10;;;;;;5075705;28;20235;-50
2022/01/31 03:40:27;;;;;;;2.70;1.27;;;7.50;35.10;;;;;;5075814;28;20187;-50
2022/01/31 03:42:53;;;;;;;8.93;1.40;;;7.50;35.10;;;;;;5075918;28;20192;-50
2022/01/31 03:45:19;;;;;;;3.10;1.10;;;7.50;35.10;;;;;;5075681;28;20190;-50
2022/01/31 03:47:46;;;;;;;2.35;1.20;;;7.50;35.10;;;;;;5075750;28;20162;-50
2022/01/31 03:50:17;;;;;;;1.20;0.60;;;7.50;35.10;;;;;;5075835;28;20188;-49
2022/01/31 03:52:43;;;;;;;1.83;1.08;;;7.50;35.30;;;;;;5075886;28;20157;-50
2022/01/31 03:55:13;;;;;;;1.90;1.25;;;7.50;35.30;;;;;;5075456;28;20264;-50
2022/01/31 03:57:39;;;;;;;2.58;1.17;;;7.50;35.20;;;;;;5075513;28;20553;-50
2022/01/31 04:00:08;;;;;;;4.70;1.73;;;7.50;35.30;;;;;;5075333;28;20169;-50
2022/01/31 04:02:34;;;;;;;5.50;0.85;;;7.30;35.20;;;;;;5075320;28;20172;-50
2022/01/31 04:05:00;;;;;;;1.30;0.57;;;7.30;35.60;;;;;;5075245;28;20172;-50
2022/01/31 04:07:25;;;;;;;7.57;0.83;;;7.30;35.60;;;;;;5075462;28;20177;-50
2022/01/31 04:09:51;;;;;;;1.70;0.47;;;7.20;35.70;;;;;;5075221;28;20200;-50
2022/01/31 04:12:17;;;;;;;2.23;0.50;;;7.10;35.90;;;;;;5075137;28;20559;-50
2022/01/31 04:14:42;;;;;;;4.10;0.80;;;7.10;36.00;;;;;;5075350;28;20604;-50
2022/01/31 04:17:10;;;;;;;2.27;0.53;;;7.20;35.80;;;;;;5075039;28;20175;-50
2022/01/31 04:19:37;;;;;;;1.40;0.85;;;7.10;35.80;;;;;;5074897;28;20212;-50
2022/01/31 04:22:05;;;;;;;3.15;2.13;;;7.10;35.80;;;;;;5075015;28;20168;-50
2022/01/31 04:24:33;;;;;;;3.67;1.00;;;7.20;35.40;;;;;;5074677;28;20228;-49
2022/01/31 04:27:05;;;;;;;2.00;0.95;;;7.10;35.60;;;;;;5074834;28;20578;-49
2022/01/31 04:29:32;;;;;;;3.00;0.82;;;7.10;35.40;;;;;;5075063;28;20296;-50
2022/01/31 04:31:58;;;;;;;1.90;0.68;;;7.20;35.50;;;;;;5074708;28;20184;-50
2022/01/31 04:34:24;;;;;;;9.23;1.27;;;7.20;35.30;;;;;;5074985;28;20279;-50
2022/01/31 04:36:50;;;;;;;1.50;0.85;;;7.20;35.10;;;;;;5074660;28;20214;-49
2022/01/31 04:39:18;;;;;;;2.22;1.30;;;7.20;35.20;;;;;;5073990;28;20243;-50
2022/01/31 04:41:49;;;;;;;7.65;1.17;;;7.20;35.20;;;;;;5074504;28;20636;-50
2022/01/31 04:44:15;;;;;;;6.25;0.85;;;7.20;35.20;;;;;;5074836;28;20161;-50
2022/01/31 04:46:43;;;;;;;1.10;0.60;;;7.20;35.20;;;;;;5074722;28;20169;-50
2022/01/31 04:49:09;;;;;;;1.10;0.63;;;7.20;35.20;;;;;;5074653;28;20173;-50
2022/01/31 04:51:35;;;;;;;2.17;0.95;;;7.20;35.10;;;;;;5074492;28;20624;-50
2022/01/31 04:54:01;;;;;;;1.10;0.63;;;7.30;35.10;;;;;;5074265;28;20198;-50
2022/01/31 04:56:26;;;;;;;3.27;0.73;;;7.30;34.80;;;;;;5074505;28;20252;-50
2022/01/31 04:58:52;;;;;;;1.70;1.00;;;7.20;35.00;;;;;;5074111;28;20541;-50
2022/01/31 05:01:18;;;;;;;1.60;0.90;;;7.30;34.90;;;;;;5074258;28;20446;-50
2022/01/31 05:03:45;;;;;;;1.67;1.10;;;7.30;35.00;;;;;;5073409;28;20536;-49
2022/01/31 05:06:14;;;;;;;1.10;0.50;;;7.30;34.70;;;;;;5074061;28;20218;-50
2022/01/31 05:08:40;;;;;;;9.02;0.73;;;7.30;34.70;;;;;;5074089;28;20267;-50
2022/01/31 05:11:08;;;;;;;3.53;0.80;;;7.30;34.60;;;;;;5073952;28;20675;-50
2022/01/31 05:13:37;;;;;;;2.33;0.85;;;7.20;34.50;;;;;;5074093;28;20180;-50
2022/01/31 05:16:03;;;;;;;4.72;1.45;;;5.60;34.10;;;;;;5073903;28;20175;-50
2022/01/31 05:18:29;;;;;;;1.00;0.50;;;7.30;34.80;;;;;;5072424;28;20200;-50
2022/01/31 05:20:55;;;;;;;3.10;1.40;;;7.30;34.60;;;;;;5074037;28;20169;-50
2022/01/31 05:23:21;;;;;;;3.80;1.83;;;7.30;34.50;;;;;;5073527;28;20200;-50
2022/01/31 05:25:46;;;;;;;2.50;1.10;;;7.20;34.40;;;;;;5073997;28;20153;-50
2022/01/31 05:28:12;;;;;;;1.03;0.50;;;7.20;34.60;;;;;;5073755;28;20172;-50
2022/01/31 05:30:38;;;;;;;1.50;0.70;;;7.30;34.70;;;;;;5073795;28;20164;-50
2022/01/31 05:33:04;;;;;;;10.77;1.40;;;7.30;34.70;;;;;;5073717;28;20433;-50
2022/01/31 05:35:30;;;;;;;1.60;0.70;;;7.40;34.50;;;;;;5073654;28;20165;-50
2022/01/31 05:37:56;;;;;;;12.43;2.17;;;7.40;34.50;;;;;;5073566;28;20660;-50
2022/01/31 05:40:22;;;;;;;10.17;2.40;;;7.40;34.40;;;;;;5073518;28;20505;-50
2022/01/31 05:42:53;;;;;;;2.15;0.95;;;7.30;34.50;;;;;;5073605;28;20677;-50
2022/01/31 05:45:18;;;;;;;4.00;0.80;;;7.40;34.50;;;;;;5073378;28;20176;-50
2022/01/31 05:47:44;;;;;;;3.93;1.13;;;7.30;34.70;;;;;;5073566;28;20169;-50
2022/01/31 05:50:10;;;;;;;2.60;1.47;;;7.30;34.60;;;;;;5073358;28;20188;-50
2022/01/31 05:52:35;;;;;;;1.60;1.43;;;7.40;34.60;;;;;;5072635;28;20157;-50
2022/01/31 05:55:02;;;;;;;3.40;1.13;;;7.40;34.60;;;;;;5073427;28;20230;-50
2022/01/31 05:57:28;;;;;;;3.75;1.02;;;7.40;34.50;;;;;;5073448;28;20186;-50
2022/01/31 05:59:54;;;;;;;5.23;1.60;;;7.30;34.60;;;;;;5073403;28;20257;-50
2022/01/31 06:02:19;;;;;;;6.50;1.63;;;7.30;34.50;;;;;;5073361;28;20176;-50
2022/01/31 06:04:45;;;;;;;1.50;0.87;;;7.30;34.80;;;;;;5073329;28;20268;-50
2022/01/31 06:07:11;;;;;;;2.30;1.80;;;7.20;34.70;;;;;;5073335;28;20620;-50
2022/01/31 06:09:37;;;;;;;1.87;1.07;;;7.30;34.70;;;;;;5073284;28;20163;-50
2022/01/31 06:12:04;;;;;;;1.83;1.20;;;7.30;34.80;;;;;;5073443;28;20219;-50
2022/01/31 06:14:32;;;;;;;2.50;1.00;;;7.20;34.70;;;;;;5073381;28;20160;-50
2022/01/31 06:16:59;;;;;;;7.25;1.85;;;7.20;34.70;;;;;;5073172;28;20223;-50
2022/01/31 06:19:24;;;;;;;1.23;0.60;;;7.10;34.90;;;;;;5073208;28;20226;-50
2022/01/31 06:21:50;;;;;;;1.10;0.60;;;7.10;35.00;;;;;;5073133;28;20168;-50
2022/01/31 06:24:16;;;;;;;1.77;1.03;;;7.20;34.90;;;;;;5071466;28;20224;-50
2022/01/31 06:26:42;;;;;;;4.77;1.10;;;7.30;34.90;;;;;;5071817;28;20526;-50
2022/01/31 06:29:08;;;;;;;1.70;1.00;;;7.30;34.90;;;;;;5073031;28;20639;-50
2022/01/31 06:31:34;;;;;;;2.07;1.17;;;7.20;34.90;;;;;;5072988;28;20169;-49
2022/01/31 06:34:01;;;;;;;2.80;1.73;;;7.10;35.00;;;;;;5073116;28;20172;-50
2022/01/31 06:36:27;;;;;;;2.15;1.40;;;7.20;35.00;;;;;;5072912;28;20418;-50
2022/01/31 06:38:53;;;;;;;3.38;2.15;;;7.10;35.10;;;;;;5072955;28;20660;-50
2022/01/31 06:41:19;;;;;;;4.20;1.15;;;7.20;35.00;;;;;;5072905;28;20169;-50
2022/01/31 06:43:46;;;;;;;2.22;1.10;;;7.10;35.00;;;;;;5072838;28;20179;-50
2022/01/31 06:46:14;;;;;;;3.35;1.20;;;7.20;34.90;;;;;;5072920;28;20161;-50
2022/01/31 06:48:40;;;;;;;2.55;1.67;;;7.20;35.00;;;;;;5072895;28;20176;-50
2022/01/31 06:51:06;;;;;;;1.80;0.85;;;7.20;35.00;;;;;;5072894;28;20165;-50
2022/01/31 06:53:33;;;;;;;1.67;1.05;;;7.30;34.80;;;;;;5072779;28;20219;-50
2022/01/31 06:55:59;;;;;;;3.08;1.15;;;7.20;34.90;;;;;;5072835;28;20161;-50
2022/01/31 06:58:25;;;;;;;1.90;0.95;;;7.30;34.90;;;;;;5072685;28;20211;-50
2022/01/31 07:00:51;;;;;;;1.10;0.50;;;7.30;34.60;;;;;;5072890;28;20624;-50
2022/01/31 07:03:17;;;;;;;4.03;1.00;;;7.30;34.90;;;;;;5074638;28;20399;-50
2022/01/31 07:05:44;;;;;;;2.97;1.43;;;7.40;34.70;;;;;;5076447;28;20413;-50
2022/01/31 07:08:11;;;;;;;5.72;1.45;;;7.40;34.70;;;;;;5076317;28;20171;-49
2022/01/31 07:10:38;;;;;;;2.47;0.90;;;7.40;34.60;;;;;;5076707;28;20213;-50
2022/01/31 07:13:13;;;;;;;3.60;1.60;;;7.40;34.60;;;;;;5076184;28;20170;-50
2022/01/31 07:15:39;;;;;;;1.08;0.50;;;7.50;34.60;;;;;;5076661;28;20164;-50
2022/01/31 07:18:04;;;;;;;1.63;0.93;;;7.40;34.60;;;;;;5076098;28;20188;-50
2022/01/31 07:20:40;;;;;;;1.97;1.17;;;7.40;34.50;;;;;;5076190;28;20176;-49
2022/01/31 07:23:16;;;;;;;2.00;0.88;;;7.30;34.50;;;;;;5075983;28;20620;-50
2022/01/31 07:25:41;;;;;;;1.52;0.82;;;7.30;34.60;;;;;;5075878;28;20224;-50
2022/01/31 07:28:09;;;;;;;3.70;1.17;;;7.30;34.80;;;;;;5076032;28;20165;-50
2022/01/31 07:30:40;;;;;;;5.68;1.17;;;7.30;34.70;;;;;;5076185;28;20466;-50
2022/01/31 07:33:10;;;;;;;1.10;0.60;;;7.40;34.80;;;;;;5074764;28;20702;-50
2022/01/31 07:35:36;;;;;;;5.55;1.67;;;7.40;34.70;;;;;;5075835;28;20173;-50
2022/01/31 07:38:02;;;;;;;1.85;1.00;;;7.50;34.60;;;;;;5075743;28;20292;-50
2022/01/31 07:40:28;;;;;;;1.73;1.25;;;7.50;34.60;;;;;;5075631;28;20188;-50
2022/01/31 07:42:54;;;;;;;6.10;1.67;;;7.50;34.30;;;;;;5075959;28;20529;-50
2022/01/31 07:45:20;;;;;;;1.73;0.90;;;7.50;34.50;;;;;;5075676;28;20165;-49
2022/01/31 07:47:46;;;;;;;7.20;1.45;;;7.60;34.40;;;;;;5075620;28;20469;-50
2022/01/31 07:50:13;;;;;;;2.85;1.15;;;7.70;34.50;;;;;;5075827;28;20173;-50
2022/01/31 07:52:40;;;;;;;1.80;1.13;;;7.60;34.10;;;;;;5075518;28;20200;-50
2022/01/31 07:55:06;;;;;;;2.33;1.02;;;7.60;34.50;;;;;;5075406;28;20177;-50
2022/01/31 07:57:33;;;;;;;11.18;1.90;;;7.70;34.50;;;;;;5075435;28;20215;-50
2022/01/31 08:00:01;;;;;;;1.83;0.80;;;7.70;34.50;;;;;;5075533;28;20192;-50
2022/01/31 08:02:27;;;;;;;2.08;1.05;;;7.80;34.30;;;;;;5074077;28;20179;-50
2022/01/31 08:04:54;;;;;;;3.83;1.03;;;7.90;34.40;;;;;;5074176;28;20184;-50
2022/01/31 08:07:21;;;;;;;5.80;1.73;;;7.90;34.10;;;;;;5075276;28;20172;-50
2022/01/31 08:09:47;;;;;;;3.72;1.65;;;7.80;34.00;;;;;;5075410;28;20165;-50
2022/01/31 08:12:13;;;;;;;5.85;1.08;;;7.70;35.00;;;;;;5074081;28;20181;-50
2022/01/31 08:14:39;;;;;;;1.63;0.83;;;7.70;34.60;;;;;;5074154;28;20176;-50
2022/01/31 08:17:05;;;;;;;1.93;1.13;;;7.70;34.70;;;;;;5075007;28;20532;-49
2022/01/31 08:19:30;;;;;;;1.30;0.80;;;7.80;34.60;;;;;;5074905;28;20290;-50
2022/01/31 08:21:56;;;;;;;1.40;0.43;;;7.90;34.50;;;;;;5073831;28;20413;-49
2022/01/31 08:24:22;;;;;;;2.90;1.57;;;7.90;34.30;;;;;;5074678;28;20229;-50
2022/01/31 08:26:47;;;;;;;12.83;1.83;;;7.80;34.30;;;;;;5073552;28;20544;-50
2022/01/31 08:29:21;;;;;;;1.50;0.80;;;7.90;34.20;;;;;;5074822;28;20188;-50
2022/01/31 08:31:52;;;;;;;2.25;1.67;;;7.90;34.30;;;;;;5075010;28;20222;-50
2022/01/31 08:34:23;;;;;;;1.48;0.90;;;8.00;34.30;;;;;;5075048;28;20169;-50
2022/01/31 08:36:49;;;;;;;5.32;0.93;;;8.10;33.80;;;;;;5074647;28;20164;-50
2022/01/31 08:39:18;;;;;;;1.20;0.55;;;8.00;34.00;;;;;;5073190;28;20203;-50
2022/01/31 08:41:45;;;;;;;1.55;0.70;;;8.10;33.50;;;;;;5074683;28;20200;-50
2022/01/31 08:44:13;;;;;;;8.02;1.73;;;8.10;33.80;;;;;;5074765;28;20255;-49
2022/01/31 08:46:39;;;;;;;5.05;0.80;;;8.20;33.60;;;;;;5074518;28;20161;-50
2022/01/31 08:49:09;;;;;;;1.67;0.90;;;8.20;33.60;;;;;;5074663;28;20554;-49
2022/01/31 08:51:36;;;;;;;2.03;1.85;;;8.20;33.50;;;;;;5073107;28;20452;-49
2022/01/31 08:54:05;;;;;;;1.60;0.90;;;8.10;33.30;;;;;;5074438;28;20184;-50
2022/01/31 08:56:35;;;;;;;2.85;0.77;;;8.20;33.60;;;;;;5074333;28;20181;-50
2022/01/31 08:59:03;;;;;;;1.77;1.05;;;8.20;33.60;;;;;;5074400;28;20209;-49
2022/01/31 09:01:29;;;;;;;3.33;2.03;;;8.20;33.10;;;;;;5074311;28;20177;-50
2022/01/31 09:04:01;;;;;;;1.53;0.83;;;8.20;33.40;;;;;;5074206;28;20178;-50
2022/01/31 09:06:29;;;;;;;4.00;0.80;;;8.20;33.20;;;;;;5074017;28;20169;-50
2022/01/31 09:08:57;;;;;;;1.30;0.77;;;8.20;33.30;;;;;;5074190;28;20164;-50
2022/01/31 09:11:25;;;;;;;1.35;0.77;;;8.20;33.00;;;;;;5073839;28;20181;-49
2022/01/31 09:13:51;;;;;;;1.35;0.63;;;8.20;33.60;;;;;;5074024;28;20218;-50
2022/01/31 09:16:17;;;;;;;2.53;0.90;;;8.30;33.60;;;;;;5073849;28;20687;-50
2022/01/31 09:18:43;;;;;;;2.50;0.82;;;8.30;33.50;;;;;;5073853;28;20687;-49
2022/01/31 09:21:09;;;;;;;5.95;0.98;;;8.30;33.60;;;;;;5073846;28;20164;-50
2022/01/31 09:23:35;;;;;;;1.50;1.08;;;8.30;33.50;;;;;;5072412;28;20183;-50
2022/01/31 09:26:01;;;;;;;8.57;1.00;;;8.30;33.60;;;;;;5073677;28;20250;-50
2022/01/31 09:28:27;;;;;;;1.57;0.97;;;8.40;33.60;;;;;;5073793;28;20259;-50
2022/01/31 09:30:54;;;;;;;2.30;1.17;;;8.30;33.80;;;;;;5073730;28;20169;-50
2022/01/31 09:33:20;;;;;;;1.77;1.02;;;8.10;34.40;;;;;;5073525;28;20251;-50
2022/01/31 09:35:47;;;;;;;2.17;1.08;;;8.00;34.70;;;;;;5073578;28;20200;-49
2022/01/31 09:38:16;;;;;;;1.45;1.00;;;7.90;35.40;;;;;;5073476;28;20258;-50
2022/01/31 09:40:42;;;;;;;2.83;0.77;;;7.80;35.90;;;;;;5073886;28;20186;-50
2022/01/31 09:48:35;;;;;;;1.30;0.70;;;7.90;37.90;;;;;;5073480;28;20148;-50
2022/01/31 09:51:23;;;;;;;1.33;0.60;;;8.00;38.90;;;;;;5073604;28;20155;-49
2022/01/31 09:53:54;;;;;;;2.17;0.90;;;8.10;38.50;;;;;;5073397;28;20248;-49
2022/01/31 09:56:26;;;;;;;6.78;0.80;;;8.10;38.60;;;;;;5073486;28;20275;-49
2022/01/31 09:58:53;;;;;;;1.70;0.50;;;8.20;38.90;;;;;;5073349;28;20275;-49
2022/01/31 10:01:35;;;;;;;1.63;1.35;;;8.20;38.90;;;;;;5072050;28;20180;-50
2022/01/31 10:04:14;;;;;;;1.10;0.45;;;8.30;39.10;;;;;;5055388;28;20164;-49
2022/01/31 10:06:41;;;;;;;1.50;0.70;;;8.20;39.60;;;;;;5073279;28;20174;-49
2022/01/31 10:09:15;;;;;;;1.65;1.05;;;8.20;39.90;;;;;;5073269;28;20165;-49
2022/01/31 10:11:49;;;;;;;2.35;0.90;;;8.20;40.60;;;;;;5073249;28;20170;-49
2022/01/31 10:17:06;;;;;;;1.20;0.73;;;8.20;40.70;;;;;;5073254;28;20168;-49
2022/01/31 10:19:41;;;;;;;1.83;0.90;;;7.80;42.30;;;;;;5073094;28;20656;-49
2022/01/31 10:22:09;;;;;;;2.28;1.23;;;7.50;43.30;;;;;;5073155;28;20178;-49
2022/01/31 10:24:38;;;;;;;1.33;0.50;;;7.40;43.40;;;;;;5073064;28;20216;-50
2022/01/31 10:27:15;;;;;;;1.20;0.57;;;7.50;43.40;;;;;;5073227;28;20663;-50
2022/01/31 10:29:47;;;;;;;2.55;1.13;;;7.60;42.70;;;;;;5071796;28;20166;-49
2022/01/31 10:32:23;;;;;;;1.20;0.70;;;7.70;42.60;;;;;;5071889;28;20161;-50
2022/01/31 10:34:53;;;;;;;4.40;1.52;;;7.80;41.50;;;;;;5073376;28;20299;-49
2022/01/31 10:37:22;;;;;;;1.27;0.82;;;8.00;42.30;;;;;;5073763;28;20157;-50
2022/01/31 10:53:15;;;;;;;1.35;0.80;;;8.00;41.40;;;;;;5076665;28;20151;-50
2022/01/31 10:55:40;;;;;;;1.73;0.83;;;8.00;41.70;;;;;;5075946;28;20543;-50
2022/01/31 10:58:09;;;;;;;1.80;0.80;;;8.00;41.20;;;;;;5076436;28;20450;-50
2022/01/31 11:00:37;;;;;;;1.23;0.68;;;8.00;41.90;;;;;;5076693;28;20525;-50
2022/01/31 11:03:32;;;;;;;2.92;1.15;;;8.10;41.50;;;;;;5076590;28;20173;-50
2022/01/31 11:06:04;;;;;;;1.40;0.73;;;8.10;41.40;;;;;;5075142;28;20164;-50
2022/01/31 11:08:30;;;;;;;1.00;0.40;;;8.20;41.60;;;;;;5076335;28;20157;-50
2022/01/31 11:10:59;;;;;;;1.63;0.70;;;8.20;41.70;;;;;;5076363;28;20173;-50
2022/01/31 11:13:26;;;;;;;2.13;1.00;;;8.10;41.50;;;;;;5076221;28;20176;-50
2022/01/31 11:15:56;;;;;;;2.05;1.20;;;8.10;41.50;;;;;;5076340;28;20168;-50
2022/01/31 11:18:23;;;;;;;1.30;0.80;;;8.10;41.70;;;;;;5076144;28;20228;-50
2022/01/31 11:20:58;;;;;;;2.75;0.70;;;8.80;41.90;;;;;;5076012;28;20269;-50
2022/01/31 11:23:28;;;;;;;1.20;0.60;;;8.10;42.30;;;;;;5076389;28;20612;-50
2022/01/31 11:25:59;;;;;;;2.22;1.35;;;8.10;41.50;;;;;;5074690;28;20548;-50
2022/01/31 11:28:29;;;;;;;1.30;0.75;;;8.20;41.40;;;;;;5075080;28;20526;-50
2022/01/31 11:30:55;;;;;;;2.70;1.17;;;8.20;41.20;;;;;;5076141;28;20278;-50
2022/01/31 11:33:22;;;;;;;3.90;1.30;;;8.30;42.10;;;;;;5075953;28;20506;-50
2022/01/31 11:35:48;;;;;;;1.50;0.85;;;8.20;41.90;;;;;;5075868;28;20169;-50
2022/01/31 11:38:16;;;;;;;1.50;1.25;;;8.10;42.10;;;;;;5075737;28;20202;-50
2022/01/31 11:40:43;;;;;;;2.95;0.90;;;8.00;43.10;;;;;;5075852;28;20172;-50
2022/01/31 11:43:10;;;;;;;3.85;1.85;;;8.50;43.70;;;;;;5075635;28;20199;-50
2022/01/31 11:45:39;;;;;;;1.58;0.93;;;7.90;43.40;;;;;;5075702;28;20218;-50
2022/01/31 11:48:17;;;;;;;2.45;1.15;;;7.80;44.80;;;;;;5075468;28;20580;-50
2022/01/31 11:50:46;;;;;;;2.42;1.08;;;7.80;44.70;;;;;;5074731;28;20175;-50
2022/01/31 11:53:12;;;;;;;1.25;0.68;;;7.80;45.40;;;;;;5075493;28;20169;-50
2022/01/31 11:55:39;;;;;;;1.00;0.40;;;7.80;45.00;;;;;;5075589;28;20175;-50
2022/01/31 11:58:07;;;;;;;3.50;0.95;;;7.80;44.70;;;;;;5074057;28;20192;-50
2022/01/31 12:00:40;;;;;;;1.30;0.77;;;7.80;44.40;;;;;;5074074;28;20262;-50
2022/01/31 12:03:10;;;;;;;1.48;0.85;;;7.90;44.60;;;;;;5075414;28;20163;-50
2022/01/31 12:05:37;;;;;;;1.85;0.80;;;7.90;44.10;;;;;;5075372;28;20637;-50
2022/01/31 12:08:20;;;;;;;1.20;0.75;;;8.00;44.00;;;;;;5075139;28;20171;-50
2022/01/31 12:10:53;;;;;;;1.83;0.68;;;8.00;43.90;;;;;;5075201;28;20498;-50
2022/01/31 12:13:49;;;;;;;1.83;0.57;;;8.00;44.10;;;;;;5075208;28;20153;-50
2022/01/31 12:16:45;;;;;;;1.85;0.60;;;8.00;44.30;;;;;;5075388;28;20166;-50
2022/01/31 12:22:40;;;;;;;1.77;0.80;;;7.90;44.70;;;;;;5073855;28;20181;-50
2022/01/31 12:25:32;;;;;;;1.27;0.77;;;7.90;45.00;;;;;;5073380;28;20227;-50
2022/01/31 12:28:35;;;;;;;1.42;0.98;;;7.80;45.20;;;;;;5073727;28;20169;-50
2022/01/31 12:31:24;;;;;;;1.52;0.82;;;7.80;46.40;;;;;;5074808;28;20636;-50
2022/01/31 12:33:49;;;;;;;1.70;0.70;;;7.90;45.30;;;;;;5075064;28;20193;-50
2022/01/31 12:36:31;;;;;;;2.47;1.87;;;7.80;47.00;;;;;;5074815;28;20201;-50
2022/01/31 12:38:57;;;;;;;1.35;0.75;;;7.80;46.30;;;;;;5074605;28;20238;-50
2022/01/31 12:41:33;;;;;;;1.57;0.67;;;7.70;46.60;;;;;;5074657;28;20516;-50
2022/01/31 12:44:33;;;;;;;1.10;0.47;;;7.80;47.50;;;;;;5074589;28;20160;-50
2022/01/31 12:47:19;;;;;;;1.10;0.40;;;7.80;47.20;;;;;;5074511;28;20165;-50
2022/01/31 12:50:05;;;;;;;1.25;0.55;;;7.70;47.60;;;;;;5074541;28;20203;-50
2022/01/31 12:52:36;;;;;;;1.73;1.45;;;7.70;48.00;;;;;;5074360;28;20628;-50
2022/01/31 12:55:10;;;;;;;1.80;0.77;;;7.70;48.40;;;;;;5074288;28;20232;-50
2022/01/31 12:57:46;;;;;;;1.40;0.75;;;7.60;47.70;;;;;;5074332;28;20214;-50
2022/01/31 13:00:12;;;;;;;1.00;0.32;;;7.70;48.00;;;;;;5072543;28;20192;-50
2022/01/31 13:02:49;;;;;;;1.42;0.50;;;7.70;48.00;;;;;;5074342;28;20169;-50
2022/01/31 13:05:14;;;;;;;1.20;0.32;;;7.80;47.80;;;;;;5074139;28;20176;-50
2022/01/31 13:07:40;;;;;;;1.00;0.30;;;7.80;47.00;;;;;;5072909;28;20172;-50
2022/01/31 13:10:10;;;;;;;0.93;0.33;;;7.80;47.50;;;;;;5074233;28;20168;-50
2022/01/31 13:12:36;;;;;;;1.83;0.50;;;7.70;47.90;;;;;;5074077;28;20161;-50
2022/01/31 13:15:03;;;;;;;1.15;0.52;;;7.70;47.00;;;;;;5074189;28;20177;-50
2022/01/31 13:17:29;;;;;;;1.17;0.50;;;7.70;47.00;;;;;;5074171;28;20524;-50
2022/01/31 13:19:57;;;;;;;2.00;0.40;;;7.70;46.70;;;;;;5073883;28;20193;-50
2022/01/31 13:22:40;;;;;;;1.00;0.40;;;7.80;46.30;;;;;;5074139;28;20255;-50
2022/01/31 13:25:15;;;;;;;1.45;0.65;;;7.70;46.20;;;;;;5073688;28;20249;-50
2022/01/31 13:27:44;;;;;;;1.10;0.60;;;7.70;46.30;;;;;;5074093;28;20168;-50
2022/01/31 13:30:15;;;;;;;1.00;0.30;;;7.70;46.50;;;;;;5073632;28;20165;-50
2022/01/31 13:32:41;;;;;;;1.52;0.85;;;7.60;46.40;;;;;;5072478;28;20165;-50
2022/01/31 13:35:13;;;;;;;3.10;0.88;;;7.60;46.40;;;;;;5072321;28;20537;-50